Time;durP1;ratioP1;P1;durP2;ratioP2;P2;SDS_P1;SDS_P2;PMS_P1;PMS_P2;Temp;Humidity;BMP_temperature;BMP_pressure;BME280_temperature;BME280_humidity;BME280_pressure;Samples;Min_cycle;Max_cycle;Signal;HPM_P1;HPM_P2
2022/08/26 00:02:05;;;;;;;17.23;8.52;;;;;;;22.70;88.85;101355.09;5032040;28;20041;-49
2022/08/26 00:04:33;;;;;;;18.40;9.00;;;;;;;22.60;89.24;101355.50;5014964;28;20041;-49
2022/08/26 00:07:01;;;;;;;16.10;7.75;;;;;;;22.59;89.01;101365.81;5015729;28;20719;-47
2022/08/26 00:09:31;;;;;;;16.98;7.65;;;;;;;22.49;89.58;101361.47;5033221;28;20041;-53
2022/08/26 00:12:04;;;;;;;24.00;7.82;;;;;;;22.40;90.02;101363.47;5032120;28;20052;-49
2022/08/26 00:14:32;;;;;;;17.98;6.88;;;;;;;22.36;90.20;101356.13;5036046;28;20454;-48
2022/08/26 00:16:59;;;;;;;13.85;6.00;;;;;;;22.39;89.95;101359.03;5032906;28;20030;-47
2022/08/26 00:19:27;;;;;;;14.65;5.70;;;;;;;22.46;89.37;101370.44;5032746;28;20045;-48
2022/08/26 00:21:55;;;;;;;17.42;6.45;;;;;;;22.37;89.37;101364.16;5031431;28;20167;-47
2022/08/26 00:24:23;;;;;;;16.65;5.82;;;;;;;22.25;90.04;101356.53;5035369;28;20033;-46
2022/08/26 00:26:52;;;;;;;13.68;5.53;;;;;;;22.36;89.54;101368.06;4999230;28;20049;-49
2022/08/26 00:29:20;;;;;;;18.67;5.40;;;;;;;22.43;89.21;101373.91;4999224;28;20095;-46
2022/08/26 00:31:48;;;;;;;14.65;5.15;;;;;;;22.36;89.17;101367.25;5031883;28;20041;-48
2022/08/26 00:34:16;;;;;;;13.57;4.80;;;;;;;22.27;89.82;101370.06;5014408;28;20045;-49
2022/08/26 00:36:46;;;;;;;13.95;4.88;;;;;;;22.18;90.59;101369.28;5032712;28;20034;-48
2022/08/26 00:39:19;;;;;;;16.90;4.50;;;;;;;22.20;90.61;101364.19;5015687;28;20052;-46
2022/08/26 00:41:47;;;;;;;13.52;4.47;;;;;;;22.20;90.45;101365.06;5015562;28;20057;-46
2022/08/26 00:44:16;;;;;;;11.60;4.55;;;;;;;22.18;90.61;101372.88;5014694;28;20052;-46
2022/08/26 00:46:57;;;;;;;13.18;4.28;;;;;;;22.15;90.31;101361.59;5014536;28;20041;-49
2022/08/26 00:49:35;;;;;;;14.45;4.75;;;;;;;22.09;90.64;101369.31;4998916;28;20102;-48
2022/08/26 00:52:04;;;;;;;13.00;4.20;;;;;;;22.07;90.71;101366.84;5032244;28;20037;-49
2022/08/26 00:54:39;;;;;;;9.77;3.97;;;;;;;22.14;90.49;101363.56;4986727;28;20119;-49
2022/08/26 00:57:13;;;;;;;11.35;3.63;;;;;;;22.15;89.69;101367.94;5030332;28;20060;-51
2022/08/26 00:59:46;;;;;;;13.32;4.20;;;;;;;22.10;89.60;101370.91;5015567;28;20049;-51
2022/08/26 01:02:15;;;;;;;11.77;3.88;;;;;;;22.05;89.92;101362.78;5016669;28;20037;-50
2022/08/26 01:04:58;;;;;;;13.15;4.15;;;;;;;21.95;90.49;101363.97;5019500;28;20045;-49
2022/08/26 01:07:27;;;;;;;12.57;4.00;;;;;;;21.96;90.48;101365.63;5031819;28;20053;-49
2022/08/26 01:09:59;;;;;;;14.00;4.20;;;;;;;21.97;90.11;101381.09;5015188;28;20046;-49
2022/08/26 01:12:30;;;;;;;11.50;4.15;;;;;;;21.82;90.92;101376.09;5011836;28;20038;-52
2022/08/26 01:14:58;;;;;;;11.18;4.10;;;;;;;21.92;90.62;101370.19;5032237;28;20041;-49
2022/08/26 01:17:26;;;;;;;11.73;4.10;;;;;;;21.95;90.38;101363.97;5032201;28;20513;-49
2022/08/26 01:20:30;;;;;;;11.60;4.03;;;;;;;21.97;90.32;101378.31;5031546;28;20083;-50
2022/08/26 01:23:04;;;;;;;9.77;3.50;;;;;;;21.95;90.65;101372.28;5010963;28;20053;-48
2022/08/26 01:25:39;;;;;;;9.68;3.83;;;;;;;21.90;90.84;101366.94;5018650;28;20045;-49
2022/08/26 01:28:20;;;;;;;10.57;4.00;;;;;;;21.89;90.97;101366.13;5012844;28;20395;-49
2022/08/26 01:30:50;;;;;;;9.38;3.47;;;;;;;21.96;90.76;101371.16;5032334;28;20122;-48
2022/08/26 01:33:45;;;;;;;9.52;3.58;;;;;;;21.88;90.91;101378.34;5034559;28;20049;-51
2022/08/26 01:36:13;;;;;;;14.45;4.40;;;;;;;21.91;90.84;101376.88;5035682;28;20045;-50
2022/08/26 01:38:43;;;;;;;11.40;3.70;;;;;;;21.86;91.10;101364.00;5036157;28;20079;-52
2022/08/26 01:41:15;;;;;;;10.40;3.65;;;;;;;21.90;91.00;101373.28;5035474;28;20103;-53
2022/08/26 01:43:49;;;;;;;13.05;3.88;;;;;;;21.82;91.59;101373.31;5008337;28;20518;-48
2022/08/26 01:46:18;;;;;;;8.93;3.40;;;;;;;21.74;92.30;101374.16;5000342;28;20377;-50
2022/08/26 01:48:46;;;;;;;10.60;3.95;;;;;;;21.82;92.04;101365.00;5018198;28;20049;-50
2022/08/26 01:51:19;;;;;;;11.98;3.67;;;;;;;21.85;91.64;101365.16;5022789;28;20041;-50
2022/08/26 01:53:47;;;;;;;10.18;3.53;;;;;;;21.89;91.62;101357.78;5023435;28;20038;-50
2022/08/26 01:56:15;;;;;;;9.98;3.22;;;;;;;21.92;91.56;101367.41;5001294;28;20422;-48
2022/08/26 01:58:56;;;;;;;8.32;3.47;;;;;;;21.97;91.29;101366.41;5035816;28;20053;-47
2022/08/26 02:01:24;;;;;;;11.32;3.20;;;;;;;21.92;91.29;101354.34;5035718;28;20037;-48
2022/08/26 02:04:16;;;;;;;10.13;3.55;;;;;;;21.98;91.26;101374.41;5018222;28;20030;-49
2022/08/26 02:06:44;;;;;;;10.45;3.50;;;;;;;22.01;90.99;101372.94;5035274;28;20491;-50
2022/08/26 02:09:12;;;;;;;9.38;3.42;;;;;;;21.94;91.33;101370.69;5018232;28;20050;-50
2022/08/26 02:11:41;;;;;;;9.18;3.47;;;;;;;21.99;91.11;101378.81;5035156;28;20049;-51
2022/08/26 02:14:27;;;;;;;10.82;3.60;;;;;;;21.99;91.06;101375.22;5017889;28;20033;-49
2022/08/26 02:16:56;;;;;;;11.90;3.58;;;;;;;21.95;91.39;101366.75;5035102;28;20041;-48
2022/08/26 02:19:29;;;;;;;13.25;3.45;;;;;;;21.97;91.29;101364.44;5035268;28;20045;-48
2022/08/26 02:21:59;;;;;;;9.20;3.20;;;;;;;22.01;91.14;101367.41;4998390;28;20038;-49
2022/08/26 02:24:29;;;;;;;11.82;3.67;;;;;;;22.02;90.89;101369.81;4997843;28;20151;-50
2022/08/26 02:26:57;;;;;;;10.15;3.08;;;;;;;21.86;91.90;101368.72;5029741;28;20068;-49
2022/08/26 02:29:30;;;;;;;10.90;3.13;;;;;;;21.81;92.47;101358.63;5035534;28;20056;-48
2022/08/26 02:31:58;;;;;;;11.77;3.45;;;;;;;21.77;92.75;101367.94;5022476;28;20045;-51
2022/08/26 02:34:31;;;;;;;10.68;3.10;;;;;;;21.77;92.85;101367.94;5021526;28;20053;-48
2022/08/26 02:37:01;;;;;;;11.32;3.30;;;;;;;21.81;92.39;101369.72;5034627;28;20558;-49
2022/08/26 02:39:30;;;;;;;10.98;3.58;;;;;;;21.85;92.26;101369.88;5017640;28;20444;-50
2022/08/26 02:41:58;;;;;;;8.32;3.08;;;;;;;21.87;91.93;101373.94;5034818;28;20052;-48
2022/08/26 02:44:26;;;;;;;11.27;3.15;;;;;;;21.90;91.81;101375.25;5032941;28;20084;-50
2022/08/26 02:46:54;;;;;;;9.25;3.30;;;;;;;21.92;91.62;101375.72;5034853;28;20045;-49
2022/08/26 02:49:23;;;;;;;13.55;3.30;;;;;;;21.92;91.71;101375.72;5036994;28;20040;-50
2022/08/26 02:51:52;;;;;;;9.85;3.03;;;;;;;21.91;91.46;101374.09;5028066;28;20123;-48
2022/08/26 02:54:20;;;;;;;8.95;2.95;;;;;;;21.88;91.76;101377.53;5031181;28;20042;-50
2022/08/26 02:56:50;;;;;;;9.27;3.10;;;;;;;21.85;92.01;101369.88;5033627;28;20064;-50
2022/08/26 02:59:18;;;;;;;11.02;3.20;;;;;;;21.84;92.00;101380.19;5041517;28;20095;-51
2022/08/26 03:01:51;;;;;;;13.80;3.60;;;;;;;21.82;92.09;101382.47;5025340;28;20057;-49
2022/08/26 03:04:23;;;;;;;12.02;3.10;;;;;;;21.78;92.48;101380.69;5013833;28;20076;-53
2022/08/26 03:06:52;;;;;;;10.75;2.95;;;;;;;21.76;92.69;101377.41;5004021;28;20046;-51
2022/08/26 03:09:22;;;;;;;9.00;2.90;;;;;;;21.70;92.90;101374.81;5037047;28;20048;-49
2022/08/26 03:11:50;;;;;;;10.23;3.10;;;;;;;21.67;93.35;101377.41;5017191;28;20041;-51
2022/08/26 03:14:18;;;;;;;11.23;3.20;;;;;;;21.65;93.48;101380.53;5034304;28;20045;-52
2022/08/26 03:16:46;;;;;;;10.98;3.22;;;;;;;21.61;93.84;101376.78;5037001;28;20752;-50
2022/08/26 03:19:15;;;;;;;10.13;2.83;;;;;;;21.64;93.66;101370.56;5049618;28;20048;-50
2022/08/26 03:21:44;;;;;;;10.10;3.05;;;;;;;21.66;93.51;101371.06;5040555;28;20065;-48
2022/08/26 03:24:14;;;;;;;11.27;3.17;;;;;;;21.61;93.96;101378.75;5016523;28;20527;-52
2022/08/26 03:26:42;;;;;;;12.50;3.42;;;;;;;21.60;93.86;101368.78;5033414;28;20064;-49
2022/08/26 03:32:06;;;;;;;13.15;2.92;;;;;;;21.47;94.82;101378.94;5036282;28;20045;-50
2022/08/26 03:34:34;;;;;;;8.80;3.10;;;;;;;21.52;94.17;101378.75;5036314;28;20050;-49
2022/08/26 03:37:03;;;;;;;9.38;3.03;;;;;;;21.49;94.36;101384.97;5017832;28;20098;-52
2022/08/26 03:39:30;;;;;;;12.57;3.10;;;;;;;21.49;94.34;101379.44;5044644;28;20045;-50
2022/08/26 03:41:59;;;;;;;9.45;2.67;;;;;;;21.50;94.57;101375.50;5035482;28;20072;-47
2022/08/26 03:44:27;;;;;;;11.02;3.25;;;;;;;21.52;94.32;101384.31;5033431;28;20063;-49
2022/08/26 03:46:55;;;;;;;11.75;2.90;;;;;;;21.53;94.21;101383.19;5033325;28;20049;-46
2022/08/26 03:49:22;;;;;;;13.52;3.22;;;;;;;21.54;94.14;101387.56;5017239;28;20037;-46
2022/08/26 03:51:50;;;;;;;9.05;2.83;;;;;;;21.51;94.42;101391.00;5015413;28;20385;-45
2022/08/26 03:54:18;;;;;;;10.10;2.80;;;;;;;21.48;94.50;101394.44;5033154;28;20045;-48
2022/08/26 03:56:46;;;;;;;8.95;2.80;;;;;;;21.46;94.33;101392.00;5012492;28;20582;-46
2022/08/26 03:59:14;;;;;;;10.38;3.42;;;;;;;21.47;94.26;101396.38;5015668;28;20091;-46
2022/08/26 04:01:42;;;;;;;9.02;2.75;;;;;;;21.44;94.45;101388.72;5014825;28;20909;-46
2022/08/26 04:04:10;;;;;;;13.18;2.97;;;;;;;21.42;94.47;101387.44;5032435;28;20046;-45
2022/08/26 04:06:42;;;;;;;8.18;2.90;;;;;;;21.35;94.91;101389.84;5001662;28;20048;-46
2022/08/26 04:09:18;;;;;;;10.43;2.78;;;;;;;21.34;95.02;101374.38;5031989;28;20109;-47
2022/08/26 04:11:48;;;;;;;10.48;3.47;;;;;;;21.33;94.95;101387.41;5014938;28;20068;-50
2022/08/26 04:14:19;;;;;;;7.28;2.60;;;;;;;21.32;95.27;101388.53;5033311;28;20048;-48
2022/08/26 04:16:48;;;;;;;8.73;2.85;;;;;;;21.30;95.01;101384.47;5033279;28;20049;-49
2022/08/26 04:19:17;;;;;;;10.45;2.80;;;;;;;21.33;94.78;101375.50;4998559;28;20041;-52
2022/08/26 04:21:45;;;;;;;7.05;2.63;;;;;;;21.34;94.76;101379.91;5014633;28;20065;-50
2022/08/26 04:24:15;;;;;;;9.20;2.55;;;;;;;21.34;94.63;101379.91;5033045;28;20045;-48
2022/08/26 04:26:44;;;;;;;10.35;3.00;;;;;;;21.34;94.44;101385.47;5033249;28;20053;-49
2022/08/26 04:29:15;;;;;;;9.00;2.92;;;;;;;21.36;94.51;101374.84;5038490;28;20045;-50
2022/08/26 04:31:42;;;;;;;9.77;2.42;;;;;;;21.37;94.29;101377.28;4997739;28;20501;-50
2022/08/26 04:34:10;;;;;;;10.95;2.90;;;;;;;21.33;94.07;101379.06;5014413;28;20034;-51
2022/08/26 04:36:41;;;;;;;9.18;2.60;;;;;;;21.34;94.50;101379.91;5000009;28;20099;-51
2022/08/26 04:39:11;;;;;;;12.75;3.10;;;;;;;21.33;94.31;101381.03;4999663;28;20038;-49
2022/08/26 04:41:39;;;;;;;9.75;2.65;;;;;;;21.30;94.34;101381.69;5023210;28;20042;-49
2022/08/26 04:44:07;;;;;;;10.30;2.40;;;;;;;21.27;94.30;101389.53;5009694;28;20045;-48
2022/08/26 04:46:35;;;;;;;8.48;2.50;;;;;;;21.24;94.63;101387.41;5032708;28;20049;-49
2022/08/26 04:49:10;;;;;;;11.95;2.33;;;;;;;21.25;94.33;101391.81;5028657;28;20406;-48
2022/08/26 04:51:38;;;;;;;11.85;2.60;;;;;;;21.21;94.32;101399.16;5031629;28;20068;-48
2022/08/26 04:54:06;;;;;;;6.88;2.05;;;;;;;21.24;94.27;101400.47;5014786;28;20037;-49
2022/08/26 04:56:38;;;;;;;7.32;2.58;;;;;;;21.23;94.24;101399.63;5032053;28;20057;-49
2022/08/26 04:59:08;;;;;;;6.05;2.20;;;;;;;21.18;94.43;101397.03;5043544;28;20037;-47
2022/08/26 05:01:46;;;;;;;6.97;2.53;;;;;;;21.20;94.26;101400.28;4999672;28;20072;-51
2022/08/26 05:04:15;;;;;;;6.05;1.83;;;;;;;21.20;94.08;101403.06;5003151;28;20054;-49
2022/08/26 05:06:48;;;;;;;7.90;2.40;;;;;;;21.17;94.31;101406.50;5031796;28;20050;-46
2022/08/26 05:09:17;;;;;;;8.45;2.38;;;;;;;21.17;94.62;101400.13;5016021;28;20137;-47
2022/08/26 05:11:45;;;;;;;8.73;2.15;;;;;;;21.17;94.75;101403.72;5032172;28;20050;-48
2022/08/26 05:14:20;;;;;;;7.55;2.17;;;;;;;21.15;94.60;101408.78;5013555;28;20373;-49
2022/08/26 05:16:49;;;;;;;7.07;2.15;;;;;;;21.05;95.35;101404.38;5013845;28;20080;-53
2022/08/26 05:19:17;;;;;;;9.18;2.72;;;;;;;21.02;95.61;101404.19;5035619;28;20050;-50
2022/08/26 05:21:47;;;;;;;7.32;2.42;;;;;;;21.00;95.83;101412.03;5014062;28;20056;-51
2022/08/26 05:24:16;;;;;;;25.33;2.78;;;;;;;20.95;96.26;101410.22;5013199;28;20408;-50
2022/08/26 05:26:45;;;;;;;7.20;2.20;;;;;;;20.95;96.25;101414.94;5031720;28;20056;-50
2022/08/26 05:29:13;;;;;;;8.52;2.60;;;;;;;20.90;96.46;101410.38;5032914;28;20373;-53
2022/08/26 05:31:41;;;;;;;11.65;2.95;;;;;;;20.88;96.64;101409.91;5031870;28;20496;-52
2022/08/26 05:34:09;;;;;;;9.70;2.35;;;;;;;20.84;96.96;101415.25;5030263;28;20042;-53
2022/08/26 05:36:37;;;;;;;8.90;2.53;;;;;;;20.80;97.18;101408.72;5031746;28;20045;-53
2022/08/26 05:39:06;;;;;;;10.57;2.38;;;;;;;20.77;97.68;101414.91;5020292;28;20127;-52
2022/08/26 05:41:39;;;;;;;10.23;3.03;;;;;;;20.81;97.60;101418.66;5030000;28;20037;-51
2022/08/26 05:44:11;;;;;;;9.80;2.55;;;;;;;20.83;97.55;101416.41;5015764;28;20526;-51
2022/08/26 05:46:41;;;;;;;12.68;2.65;;;;;;;20.91;97.37;101425.03;5014340;28;20033;-53
2022/08/26 05:49:12;;;;;;;12.88;2.97;;;;;;;20.95;96.92;101421.31;5038003;28;20516;-55
2022/08/26 05:51:45;;;;;;;6.38;2.17;;;;;;;20.94;97.01;101424.38;5031756;28;20041;-59
2022/08/26 05:54:17;;;;;;;17.15;2.67;;;;;;;20.93;97.00;101422.78;5030366;28;20037;-48
2022/08/26 05:56:50;;;;;;;4.50;2.03;;;;;;;20.94;97.23;101419.66;4663985;28;9999737;-50
2022/08/26 05:59:18;;;;;;;8.25;2.15;;;;;;;20.95;97.27;101426.84;5012297;28;20037;-53
2022/08/26 06:01:53;;;;;;;7.43;2.80;;;;;;;20.94;97.39;101425.19;5029092;28;20128;-47
2022/08/26 06:04:24;;;;;;;6.32;2.05;;;;;;;20.88;97.57;101432.06;5028394;28;20434;-47
2022/08/26 06:06:54;;;;;;;9.20;2.50;;;;;;;20.81;98.38;101431.72;5010632;28;20504;-50
2022/08/26 06:09:21;;;;;;;9.43;2.42;;;;;;;20.82;98.58;101433.31;5028986;28;20057;-48
2022/08/26 06:11:50;;;;;;;10.90;2.60;;;;;;;20.86;98.44;101434.31;4994624;28;20091;-50
2022/08/26 06:14:17;;;;;;;10.55;2.63;;;;;;;20.88;97.91;101448.66;5030380;28;20057;-49
2022/08/26 06:16:45;;;;;;;9.45;2.35;;;;;;;20.88;97.76;101447.84;4996404;28;20049;-48
2022/08/26 06:19:14;;;;;;;9.70;2.50;;;;;;;20.88;97.74;101447.84;5032958;28;20041;-46
2022/08/26 06:21:45;;;;;;;11.60;3.13;;;;;;;20.79;97.81;101451.41;5009618;28;20049;-52
2022/08/26 06:27:08;;;;;;;10.00;2.30;;;;;;;20.75;97.79;101461.50;5016358;28;20045;-50
2022/08/26 06:29:37;;;;;;;6.43;2.15;;;;;;;20.75;97.79;101447.66;5034926;28;20454;-49
2022/08/26 06:32:05;;;;;;;10.70;2.20;;;;;;;20.77;97.51;101453.69;5034760;28;20048;-50
2022/08/26 06:34:35;;;;;;;6.93;2.08;;;;;;;20.78;97.19;101460.03;5017136;28;20047;-52
2022/08/26 06:37:04;;;;;;;6.68;1.90;;;;;;;20.81;96.94;101448.34;5020568;28;20051;-48
2022/08/26 06:39:33;;;;;;;6.63;1.90;;;;;;;20.85;96.51;101454.84;5018270;28;20048;-49
2022/08/26 06:42:01;;;;;;;8.20;2.30;;;;;;;20.79;96.48;101467.22;5035018;28;20049;-47
2022/08/26 06:44:33;;;;;;;7.78;2.25;;;;;;;20.76;96.57;101465.91;5034513;28;20044;-50
2022/08/26 06:47:01;;;;;;;11.23;2.20;;;;;;;20.79;96.68;101465.25;5034574;28;20050;-51
2022/08/26 06:49:29;;;;;;;10.85;2.50;;;;;;;20.75;96.72;101469.81;5035293;28;20046;-47
2022/08/26 06:51:57;;;;;;;7.45;2.22;;;;;;;20.71;96.95;101471.59;5034603;28;20052;-47
2022/08/26 06:54:27;;;;;;;9.40;2.70;;;;;;;20.70;96.87;101474.69;5034340;28;20435;-53
2022/08/26 06:56:56;;;;;;;7.22;2.17;;;;;;;20.71;97.02;101476.31;5021131;28;20053;-50
2022/08/26 06:59:24;;;;;;;8.00;2.30;;;;;;;20.75;96.84;101477.31;5017402;28;20045;-51
2022/08/26 07:01:53;;;;;;;7.13;2.17;;;;;;;20.76;96.69;101474.22;5033866;28;20500;-52
2022/08/26 07:04:23;;;;;;;10.32;2.47;;;;;;;20.79;96.06;101476.34;5034719;28;20041;-48
2022/08/26 07:06:52;;;;;;;11.43;2.30;;;;;;;20.77;96.42;101475.03;5033563;28;20045;-48
2022/08/26 07:09:31;;;;;;;11.00;2.80;;;;;;;20.76;96.29;101474.22;5041331;28;20049;-51
2022/08/26 07:11:59;;;;;;;6.45;2.00;;;;;;;20.73;96.07;101474.84;5017493;28;20094;-47
2022/08/26 07:14:27;;;;;;;6.07;2.20;;;;;;;20.75;96.15;101480.88;5017077;28;20152;-52
2022/08/26 07:16:54;;;;;;;9.63;2.40;;;;;;;20.71;95.77;101476.31;5000904;28;20451;-49
2022/08/26 07:19:24;;;;;;;14.77;3.03;;;;;;;20.69;95.98;101478.59;5034601;28;20060;-49
2022/08/26 07:22:03;;;;;;;10.02;2.60;;;;;;;20.75;95.82;101472.56;5017612;28;20389;-49
2022/08/26 07:24:36;;;;;;;7.22;2.25;;;;;;;20.76;95.52;101470.63;5016907;28;20046;-49
2022/08/26 07:27:06;;;;;;;10.30;2.50;;;;;;;20.81;94.88;101476.84;5035105;28;20103;-47
2022/08/26 07:29:36;;;;;;;7.53;2.30;;;;;;;20.77;94.45;101486.91;5034536;28;20046;-48
2022/08/26 07:32:04;;;;;;;6.82;2.03;;;;;;;20.76;94.58;101481.72;5035917;28;20038;-47
2022/08/26 07:34:32;;;;;;;9.88;2.38;;;;;;;20.75;94.56;101494.72;5037178;28;20045;-49
2022/08/26 07:37:00;;;;;;;11.02;2.80;;;;;;;20.69;94.80;101487.72;5016695;28;20044;-48
2022/08/26 07:39:29;;;;;;;8.90;2.67;;;;;;;20.72;94.46;101497.34;5034271;28;20412;-51
2022/08/26 07:42:01;;;;;;;9.25;2.53;;;;;;;20.76;94.37;101490.84;5035319;28;20039;-51
2022/08/26 07:44:36;;;;;;;9.13;2.40;;;;;;;20.79;94.09;101487.41;5023850;28;20044;-51
2022/08/26 07:47:04;;;;;;;8.75;2.50;;;;;;;20.81;93.80;101493.47;5020591;28;20132;-53
2022/08/26 07:49:53;;;;;;;6.68;2.55;;;;;;;20.78;93.49;101505.19;5017123;28;20405;-51
2022/08/26 07:52:21;;;;;;;9.98;2.50;;;;;;;20.75;93.49;101503.03;4993640;28;20104;-54
2022/08/26 07:54:56;;;;;;;7.75;2.20;;;;;;;20.74;93.62;101503.38;5027178;28;20044;-50
2022/08/26 07:57:27;;;;;;;10.00;2.60;;;;;;;20.69;93.29;101512.63;5023880;28;20053;-51
2022/08/26 07:59:55;;;;;;;9.65;2.70;;;;;;;20.73;93.61;101505.31;4998310;28;20049;-49
2022/08/26 08:02:24;;;;;;;8.35;2.85;;;;;;;20.83;92.97;101496.72;5015932;28;20052;-53
2022/08/26 08:04:52;;;;;;;9.43;2.20;;;;;;;20.91;92.42;101502.63;5014856;28;20053;-50
2022/08/26 08:07:20;;;;;;;7.15;2.30;;;;;;;20.97;92.11;101501.31;5025850;28;20099;-53
2022/08/26 08:10:07;;;;;;;9.07;2.38;;;;;;;21.07;91.53;101503.81;5029362;28;20042;-49
2022/08/26 08:12:38;;;;;;;9.52;2.40;;;;;;;21.09;90.98;101504.28;5013955;28;20053;-50
2022/08/26 08:15:07;;;;;;;8.40;1.92;;;;;;;21.13;90.79;101510.81;5035036;28;20095;-50
2022/08/26 08:17:36;;;;;;;11.40;2.10;;;;;;;21.19;90.77;101503.97;5021622;28;20087;-49
2022/08/26 08:20:05;;;;;;;11.80;2.58;;;;;;;21.21;90.35;101507.25;5015290;28;20042;-51
2022/08/26 08:22:34;;;;;;;5.70;1.85;;;;;;;21.26;90.11;101515.41;4999355;28;20042;-47
2022/08/26 08:25:02;;;;;;;10.30;2.35;;;;;;;21.25;89.56;101511.00;5026693;28;20045;-50
2022/08/26 08:27:35;;;;;;;9.45;2.10;;;;;;;21.30;89.33;101514.75;5029541;28;20049;-49
2022/08/26 08:30:04;;;;;;;8.55;2.00;;;;;;;21.27;89.44;101522.56;5015594;28;20088;-52
2022/08/26 08:32:32;;;;;;;8.43;2.22;;;;;;;21.26;89.34;101520.94;5033233;28;20042;-52
2022/08/26 08:35:03;;;;;;;7.85;1.90;;;;;;;21.28;89.24;101523.38;5017012;28;20561;-53
2022/08/26 08:37:38;;;;;;;7.97;2.17;;;;;;;21.31;89.28;101524.69;4998764;28;20389;-51
2022/08/26 08:40:07;;;;;;;8.98;2.50;;;;;;;21.34;88.93;101529.59;5014249;28;20072;-55
2022/08/26 08:42:53;;;;;;;9.05;2.15;;;;;;;21.34;88.58;101524.06;5013690;28;20063;-53
2022/08/26 08:45:35;;;;;;;6.88;2.22;;;;;;;21.32;88.78;101529.09;5033157;28;20045;-51
2022/08/26 08:48:05;;;;;;;8.50;2.10;;;;;;;21.34;88.57;101524.88;5001545;28;20041;-52
2022/08/26 08:50:36;;;;;;;8.82;2.25;;;;;;;21.38;88.49;101511.16;5033133;28;20037;-55
2022/08/26 08:53:17;;;;;;;9.15;2.03;;;;;;;21.37;87.78;101520.63;5015455;28;20041;-50
2022/08/26 08:56:12;;;;;;;14.63;3.30;;;;;;;21.34;87.30;101521.28;4991954;28;20499;-53
2022/08/26 08:58:46;;;;;;;10.00;2.92;;;;;;;21.34;87.47;101522.09;5021759;28;20381;-54
2022/08/26 09:01:40;;;;;;;10.13;3.10;;;;;;;21.36;87.24;101513.44;5032043;28;20030;-51
2022/08/26 09:04:29;;;;;;;6.78;2.22;;;;;;;21.32;86.97;101523.56;5032102;28;20049;-50
2022/08/26 09:06:58;;;;;;;6.82;2.10;;;;;;;21.28;87.29;101521.41;5029233;28;20420;-51
2022/08/26 09:09:37;;;;;;;7.90;1.85;;;;;;;21.30;87.29;101523.88;5014454;28;20071;-50
2022/08/26 09:12:24;;;;;;;11.68;2.33;;;;;;;21.28;87.04;101531.69;5010269;28;20060;-52
2022/08/26 09:15:25;;;;;;;6.80;2.08;;;;;;;21.30;86.91;101531.38;5034437;28;20120;-50
2022/08/26 09:18:02;;;;;;;7.20;2.00;;;;;;;21.29;86.62;101527.81;5021641;28;20615;-51
2022/08/26 09:20:53;;;;;;;10.38;2.88;;;;;;;21.27;86.84;101527.31;5031835;28;20044;-52
2022/08/26 09:23:21;;;;;;;8.73;2.28;;;;;;;21.27;86.89;101528.13;5028149;28;20041;-51
2022/08/26 09:25:57;;;;;;;9.85;2.33;;;;;;;21.28;86.96;101524.19;5015562;28;20045;-51
2022/08/26 09:28:26;;;;;;;6.05;2.22;;;;;;;21.32;86.68;101531.88;5027440;28;20037;-51
2022/08/26 09:31:00;;;;;;;8.40;3.03;;;;;;;21.28;86.75;101535.28;5014162;28;20101;-50
2022/08/26 09:33:32;;;;;;;8.80;2.28;;;;;;;21.24;87.06;101542.63;5013169;28;20044;-52
2022/08/26 09:36:22;;;;;;;8.52;2.25;;;;;;;21.21;87.09;101537.75;5042711;28;20052;-52
2022/08/26 09:38:53;;;;;;;8.43;2.35;;;;;;;21.16;87.55;101537.88;5028301;28;20092;-49
2022/08/26 09:41:31;;;;;;;10.77;2.30;;;;;;;21.15;87.71;101529.91;5031438;28;20038;-52
2022/08/26 09:44:17;;;;;;;11.40;3.08;;;;;;;21.13;88.01;101538.53;5031243;28;20046;-49
2022/08/26 09:46:53;;;;;;;9.82;2.85;;;;;;;21.15;88.22;101536.25;5012778;28;20057;-51
2022/08/26 09:49:26;;;;;;;8.57;2.08;;;;;;;21.15;88.36;101533.47;4997905;28;20054;-51
2022/08/26 09:52:12;;;;;;;8.38;2.22;;;;;;;21.15;88.94;101541.78;5020304;28;20515;-50
2022/08/26 09:54:43;;;;;;;9.90;2.40;;;;;;;21.14;90.20;101540.16;5033340;28;20041;-51
2022/08/26 09:57:25;;;;;;;8.80;2.35;;;;;;;21.09;90.35;101545.84;5034448;28;20033;-52
2022/08/26 09:59:53;;;;;;;9.80;2.22;;;;;;;21.06;91.45;101538.97;5035208;28;20058;-52
2022/08/26 10:02:33;;;;;;;9.88;2.10;;;;;;;21.08;91.14;101544.22;5035590;28;20049;-50
2022/08/26 10:05:05;;;;;;;9.65;2.38;;;;;;;21.12;91.69;101536.06;5037508;28;20066;-47
2022/08/26 10:07:49;;;;;;;15.68;3.33;;;;;;;21.16;91.18;101546.19;5033860;28;20041;-48
2022/08/26 10:10:30;;;;;;;14.20;2.65;;;;;;;21.20;91.07;101552.72;5030232;28;20041;-49
2022/08/26 10:13:23;;;;;;;13.57;2.40;;;;;;;21.09;89.84;101547.78;5031583;28;20042;-49
2022/08/26 10:16:08;;;;;;;13.35;2.60;;;;;;;21.00;90.86;101536.72;5035657;28;20042;-50
2022/08/26 10:18:44;;;;;;;9.52;2.08;;;;;;;20.89;90.70;101538.13;5018297;28;20120;-51
2022/08/26 10:21:15;;;;;;;15.70;2.88;;;;;;;20.87;90.70;101537.63;5000696;28;20037;-50
2022/08/26 10:23:51;;;;;;;9.90;2.63;;;;;;;20.82;91.21;101533.84;5017500;28;20098;-49
2022/08/26 10:26:31;;;;;;;11.63;2.38;;;;;;;20.84;91.04;101547.41;5033059;28;20041;-50
2022/08/26 10:29:12;;;;;;;13.10;2.83;;;;;;;20.82;91.06;101546.91;5016819;28;20563;-50
2022/08/26 10:31:45;;;;;;;10.70;2.60;;;;;;;20.88;91.26;101542.00;5015502;28;20045;-48
2022/08/26 10:34:18;;;;;;;12.82;2.40;;;;;;;20.94;90.51;101537.97;5034395;28;20049;-52
2022/08/26 10:36:56;;;;;;;9.40;2.60;;;;;;;20.97;90.14;101542.88;5033219;28;20103;-46
2022/08/26 10:39:49;;;;;;;8.05;2.17;;;;;;;20.89;90.30;101551.97;5000059;28;20041;-52
2022/08/26 10:42:40;;;;;;;13.63;2.80;;;;;;;20.92;90.15;101543.03;5033690;28;20041;-51
2022/08/26 10:45:10;;;;;;;11.55;2.33;;;;;;;20.92;89.81;101543.03;5035505;28;20045;-50
2022/08/26 10:47:58;;;;;;;12.57;2.75;;;;;;;20.92;90.06;101543.03;5013740;28;20072;-51
2022/08/26 10:50:31;;;;;;;12.10;2.70;;;;;;;20.94;89.27;101537.97;5034230;28;20053;-52
2022/08/26 10:53:20;;;;;;;16.08;2.78;;;;;;;20.91;89.51;101536.66;5015038;28;20396;-48
2022/08/26 10:56:08;;;;;;;16.77;2.75;;;;;;;20.91;89.52;101538.63;5027813;28;20060;-53
2022/08/26 10:58:59;;;;;;;12.77;2.65;;;;;;;20.92;89.37;101537.47;4333458;28;10000722;-51
2022/08/26 11:01:41;;;;;;;10.95;2.42;;;;;;;20.87;89.74;101538.44;5026749;28;20064;-51
2022/08/26 11:04:20;;;;;;;7.78;2.10;;;;;;;20.88;89.65;101539.25;5028373;28;20043;-51
2022/08/26 11:07:09;;;;;;;11.32;2.25;;;;;;;20.95;89.65;101540.44;5030691;28;20042;-51
2022/08/26 11:09:45;;;;;;;12.60;2.35;;;;;;;20.97;88.79;101542.88;5029823;28;20049;-51
2022/08/26 11:12:31;;;;;;;;;;;;;;;20.93;89.08;101545.47;5030460;28;20505;-51
2022/08/26 11:15:00;;;;;;;8.43;2.30;;;;;;;20.94;89.11;101551.81;5027433;28;19921;-52
2022/08/26 11:17:46;;;;;;;9.82;2.20;;;;;;;20.91;89.24;101552.47;5030295;28;20049;-54
2022/08/26 11:20:29;;;;;;;10.98;2.17;;;;;;;20.91;89.02;101542.22;5031156;28;20045;-50
2022/08/26 11:23:23;;;;;;;6.60;2.33;;;;;;;20.97;89.09;101545.63;5028189;28;20036;-50
2022/08/26 11:26:09;;;;;;;16.10;2.30;;;;;;;21.02;88.86;101537.19;5010670;28;20063;-48
2022/08/26 11:28:43;;;;;;;14.32;3.03;;;;;;;20.96;88.36;101538.47;5013310;28;20115;-50
2022/08/26 11:31:37;;;;;;;8.63;2.55;;;;;;;20.91;88.46;101538.63;5020644;28;20045;-47
2022/08/26 11:34:07;;;;;;;11.18;2.60;;;;;;;20.92;88.68;101537.47;5028021;28;20532;-48
2022/08/26 11:36:39;;;;;;;6.72;2.17;;;;;;;20.93;88.13;101542.72;5014734;28;20112;-53
2022/08/26 11:39:47;;;;;;;8.43;2.40;;;;;;;20.93;88.18;101547.44;5011303;28;20060;-49
2022/08/26 11:42:36;;;;;;;6.70;2.03;;;;;;;20.94;88.12;101546.28;5017490;28;20041;-53
2022/08/26 11:45:18;;;;;;;6.88;2.30;;;;;;;20.98;87.79;101538.97;5015175;28;20049;-51
2022/08/26 11:47:47;;;;;;;7.25;2.25;;;;;;;21.02;87.41;101537.19;5031221;28;20037;-52
2022/08/26 11:50:25;;;;;;;8.98;2.10;;;;;;;21.04;87.34;101537.69;5009213;28;20140;-52
2022/08/26 11:53:00;;;;;;;13.70;2.53;;;;;;;21.04;87.21;101552.34;5034214;28;20087;-51
2022/08/26 11:55:30;;;;;;;8.23;2.17;;;;;;;21.05;87.37;101536.56;5031786;28;20049;-56